createdAt,value
2023-05-08T00:00:35.402Z,8.42
2023-05-08T00:01:38.071Z,8.42
2023-05-08T00:02:40.940Z,8.35
2023-05-08T00:03:43.156Z,8.25
2023-05-08T00:04:45.441Z,8.34
2023-05-08T00:05:47.457Z,8.34
2023-05-08T00:06:49.430Z,8.25
2023-05-08T00:07:51.280Z,8.29
2023-05-08T00:08:56.768Z,8.34
2023-05-08T00:09:58.656Z,8.36
2023-05-08T00:11:00.724Z,8.39
2023-05-08T00:12:03.032Z,8.38
2023-05-08T00:13:05.029Z,8.39
2023-05-08T00:14:06.969Z,8.27
2023-05-08T00:15:09.678Z,8.39
2023-05-08T00:16:12.108Z,8.22
2023-05-08T00:17:14.170Z,8.28
2023-05-08T00:18:15.997Z,8.25
2023-05-08T00:19:17.866Z,8.36
2023-05-08T00:20:19.942Z,8.26
2023-05-08T00:21:21.782Z,8.38
2023-05-08T00:22:24.289Z,8.30
2023-05-08T00:23:26.142Z,8.29
2023-05-08T00:24:28.035Z,8.30
2023-05-08T00:25:29.897Z,8.22
2023-05-08T00:26:32.066Z,8.30
2023-05-08T00:27:33.931Z,8.18
2023-05-08T00:28:35.801Z,8.15
2023-05-08T00:29:38.227Z,8.20
2023-05-08T00:30:40.255Z,8.13
2023-05-08T00:31:42.180Z,8.19
2023-05-08T00:32:44.255Z,8.15
2023-05-08T00:33:46.327Z,8.16
2023-05-08T00:34:48.211Z,8.26
2023-05-08T00:35:50.049Z,8.24
2023-05-08T00:36:52.293Z,8.16
2023-05-08T00:37:54.145Z,8.11
2023-05-08T00:38:56.014Z,8.24
2023-05-08T00:39:57.883Z,8.24
2023-05-08T00:41:02.764Z,8.24
2023-05-08T00:42:04.803Z,8.19
2023-05-08T00:43:06.656Z,8.09
2023-05-08T00:44:08.547Z,8.12
2023-05-08T00:45:12.566Z,8.20
2023-05-08T00:46:15.228Z,8.19
2023-05-08T00:47:17.298Z,8.16
2023-05-08T00:48:21.193Z,8.13
2023-05-08T00:49:23.881Z,8.12
2023-05-08T00:50:26.973Z,8.10
2023-05-08T00:51:29.606Z,8.10
2023-05-08T00:52:32.517Z,8.14
2023-05-08T00:53:38.106Z,8.08
2023-05-08T00:54:40.574Z,8.10
2023-05-08T00:55:43.147Z,8.09
2023-05-08T00:56:48.575Z,8.13
2023-05-08T00:57:51.252Z,8.09
2023-05-08T00:58:53.488Z,8.13
2023-05-08T00:59:57.929Z,8.12
2023-05-08T01:01:00.262Z,8.07
2023-05-08T01:02:03.910Z,8.14
2023-05-08T01:03:06.758Z,8.06
2023-05-08T01:04:09.489Z,8.10
2023-05-08T01:05:11.370Z,8.08
2023-05-08T01:06:13.631Z,8.15
2023-05-08T01:07:17.187Z,8.05
2023-05-08T01:08:19.148Z,8.05
2023-05-08T01:09:20.975Z,8.15
2023-05-08T01:10:23.771Z,8.07
2023-05-08T01:11:44.771Z,8.10
2023-05-08T01:12:59.782Z,8.12
2023-05-08T01:14:27.815Z,8.07
2023-05-08T01:15:33.667Z,8.13
2023-05-08T01:16:44.406Z,8.10
2023-05-08T01:19:37.377Z,8.05
2023-05-08T01:20:58.176Z,7.95
2023-05-08T01:22:09.846Z,7.98
2023-05-08T01:23:39.753Z,7.98
2023-05-08T01:24:51.748Z,7.95
2023-05-08T01:26:09.301Z,7.84
2023-05-08T01:27:36.378Z,7.91
2023-05-08T01:30:20.996Z,7.98
2023-05-08T01:31:43.668Z,7.94
2023-05-08T01:32:52.268Z,7.95
2023-05-08T01:33:58.056Z,7.88
2023-05-08T01:35:19.094Z,7.89
2023-05-08T01:36:31.137Z,7.76
2023-05-08T01:37:45.853Z,7.82
2023-05-08T01:38:57.103Z,7.81
2023-05-08T01:40:00.887Z,7.80
2023-05-08T01:41:15.397Z,7.94
2023-05-08T01:42:53.180Z,7.86
2023-05-08T01:44:01.618Z,7.80
2023-05-08T01:45:07.572Z,7.81
2023-05-08T01:46:14.490Z,7.84
2023-05-08T01:47:20.202Z,7.75
2023-05-08T01:48:34.813Z,7.72
2023-05-08T01:49:43.502Z,7.74
2023-05-08T01:50:48.940Z,7.77
2023-05-08T01:52:00.801Z,7.81
2023-05-08T01:53:06.557Z,7.88
2023-05-08T01:54:12.218Z,7.89
2023-05-08T01:56:29.501Z,7.85
2023-05-08T01:57:35.032Z,7.86
2023-05-08T01:58:37.865Z,7.79
2023-05-08T01:59:42.136Z,7.71
2023-05-08T02:00:45.353Z,7.69
2023-05-08T02:01:50.431Z,7.71
2023-05-08T02:02:56.094Z,7.77
2023-05-08T02:04:00.636Z,7.84
2023-05-08T02:05:06.103Z,7.84
2023-05-08T02:06:12.345Z,7.86
2023-05-08T02:07:15.086Z,7.83
2023-05-08T02:08:18.923Z,7.76
2023-05-08T02:09:23.665Z,7.65
2023-05-08T02:10:28.339Z,7.76
2023-05-08T02:11:32.641Z,7.69
2023-05-08T02:12:36.782Z,7.78
2023-05-08T02:13:39.567Z,7.68
2023-05-08T02:14:43.087Z,7.76
2023-05-08T02:15:49.069Z,7.78
2023-05-08T02:16:54.886Z,7.69
2023-05-08T02:17:58.409Z,7.67
2023-05-08T02:19:02.276Z,7.69
2023-05-08T02:20:06.053Z,7.71
2023-05-08T02:21:08.607Z,7.60
2023-05-08T02:22:12.493Z,7.68
2023-05-08T02:23:16.978Z,7.66
2023-05-08T02:24:20.231Z,7.65
2023-05-08T02:25:23.331Z,7.64
2023-05-08T02:26:27.226Z,7.67
2023-05-08T02:27:30.583Z,7.64
2023-05-08T02:28:34.075Z,7.66
2023-05-08T02:29:37.175Z,7.62
2023-05-08T02:30:41.738Z,7.61
2023-05-08T02:31:45.630Z,7.61
2023-05-08T02:32:49.209Z,7.59
2023-05-08T02:33:53.110Z,7.70
2023-05-08T02:35:03.206Z,7.71
2023-05-08T02:36:01.740Z,7.65
2023-05-08T02:37:05.181Z,7.66
2023-05-08T02:38:09.797Z,7.64
2023-05-08T02:39:14.533Z,7.64
2023-05-08T02:40:19.915Z,7.71
2023-05-08T02:41:24.197Z,7.69
2023-05-08T02:42:26.823Z,7.73
2023-05-08T02:43:29.009Z,7.60
2023-05-08T02:44:31.854Z,7.64
2023-05-08T02:45:41.992Z,7.70
2023-05-08T02:47:04.595Z,7.62
2023-05-08T02:48:13.607Z,7.58
2023-05-08T02:49:37.114Z,7.62
2023-05-08T02:50:45.968Z,7.61
2023-05-08T02:51:54.440Z,7.69
2023-05-08T02:53:06.248Z,7.61
2023-05-08T02:54:11.942Z,7.60
2023-05-08T02:55:29.730Z,7.65
2023-05-08T02:56:36.232Z,7.64
2023-05-08T02:57:44.959Z,7.57
2023-05-08T02:59:11.289Z,7.63
2023-05-08T03:00:26.124Z,7.63
2023-05-08T03:01:31.959Z,7.58
2023-05-08T03:02:44.140Z,7.74
2023-05-08T03:03:50.004Z,7.53
2023-05-08T03:04:58.760Z,7.62
2023-05-08T03:06:02.788Z,7.64
2023-05-08T03:07:06.152Z,7.55
2023-05-08T03:08:11.799Z,7.64
2023-05-08T03:09:19.876Z,7.70
2023-05-08T03:10:26.254Z,7.66
2023-05-08T03:11:31.913Z,7.73
2023-05-08T03:12:37.864Z,7.65
2023-05-08T03:13:42.494Z,7.64
2023-05-08T03:16:07.440Z,7.78
2023-05-08T03:17:12.258Z,7.66
2023-05-08T03:18:17.898Z,7.59
2023-05-08T03:19:32.396Z,7.57
2023-05-08T03:20:41.037Z,7.73
2023-05-08T03:21:45.301Z,7.72
2023-05-08T03:22:48.689Z,7.75
2023-05-08T03:23:53.386Z,7.84
2023-05-08T03:24:57.773Z,7.74
2023-05-08T03:26:02.412Z,7.64
2023-05-08T03:27:05.132Z,7.71
2023-05-08T03:28:07.586Z,7.73
2023-05-08T03:29:11.811Z,7.74
2023-05-08T03:30:16.189Z,7.61
2023-05-08T03:31:19.181Z,7.69
2023-05-08T03:32:23.406Z,7.80
2023-05-08T03:33:27.019Z,7.78
2023-05-08T03:34:30.410Z,7.76
2023-05-08T03:35:36.040Z,7.70
2023-05-08T03:36:38.841Z,7.75
2023-05-08T03:37:41.668Z,7.81
2023-05-08T03:38:43.951Z,7.88
2023-05-08T03:39:46.560Z,7.92
2023-05-08T03:40:49.266Z,7.94
2023-05-08T03:41:51.621Z,7.86
2023-05-08T03:42:54.376Z,7.86
2023-05-08T03:43:58.006Z,7.96
2023-05-08T03:45:02.574Z,8.00
2023-05-08T03:46:05.176Z,7.98
2023-05-08T03:47:07.760Z,7.98
2023-05-08T03:48:10.638Z,8.07
2023-05-08T03:49:14.240Z,8.09
2023-05-08T03:50:16.920Z,7.83
2023-05-08T03:51:19.908Z,7.89
2023-05-08T03:52:22.661Z,7.88
2023-05-08T03:53:25.070Z,7.95
2023-05-08T03:54:26.958Z,8.05
2023-05-08T03:55:30.296Z,8.07
2023-05-08T03:56:33.586Z,7.98
2023-05-08T03:57:42.047Z,8.10
2023-05-08T03:58:53.794Z,8.00
2023-05-08T04:00:20.477Z,7.90
2023-05-08T04:01:38.333Z,8.04
2023-05-08T04:04:17.732Z,8.09
2023-05-08T04:05:34.903Z,8.06
2023-05-08T04:06:49.496Z,8.07
2023-05-08T04:07:53.708Z,8.05
2023-05-08T04:09:16.707Z,8.08
2023-05-08T04:10:40.971Z,8.07
2023-05-08T04:12:02.336Z,8.11
2023-05-08T04:13:22.720Z,8.11
2023-05-08T04:14:28.568Z,8.12
2023-05-08T04:15:34.524Z,8.16
2023-05-08T04:16:39.367Z,8.09
2023-05-08T04:17:44.849Z,8.13
2023-05-08T04:18:49.947Z,8.00
2023-05-08T04:19:55.614Z,8.18
2023-05-08T04:20:59.059Z,8.12
2023-05-08T04:23:18.239Z,8.24
2023-05-08T04:24:21.781Z,8.28
2023-05-08T04:25:25.362Z,8.29
2023-05-08T04:26:28.638Z,8.17
2023-05-08T04:27:31.011Z,8.20
2023-05-08T04:28:34.182Z,8.22
2023-05-08T04:29:36.741Z,8.30
2023-05-08T04:30:39.721Z,8.10
2023-05-08T04:31:42.384Z,8.28
2023-05-08T04:32:46.501Z,8.36
2023-05-08T04:33:49.430Z,8.29
2023-05-08T04:34:51.769Z,8.37
2023-05-08T04:35:54.271Z,8.36
2023-05-08T04:36:56.644Z,8.21
2023-05-08T04:37:58.864Z,8.30
2023-05-08T04:39:00.781Z,8.39
2023-05-08T04:40:03.244Z,8.39
2023-05-08T04:41:05.477Z,8.46
2023-05-08T04:42:07.512Z,8.45
2023-05-08T04:43:09.602Z,8.56
2023-05-08T04:44:11.668Z,8.60
2023-05-08T04:45:14.328Z,8.69
2023-05-08T04:46:16.957Z,8.75
2023-05-08T04:47:19.207Z,8.79
2023-05-08T04:48:21.178Z,8.72
2023-05-08T04:49:23.170Z,8.74
2023-05-08T04:50:25.126Z,8.84
2023-05-08T04:51:26.994Z,8.91
2023-05-08T04:52:28.858Z,8.80
2023-05-08T04:53:31.098Z,8.83
2023-05-08T04:54:33.758Z,8.95
2023-05-08T04:55:35.626Z,8.92
2023-05-08T04:56:37.972Z,8.78
2023-05-08T04:57:39.846Z,8.91
2023-05-08T04:58:41.819Z,9.02
2023-05-08T04:59:43.782Z,8.63
2023-05-08T05:00:45.876Z,8.92
2023-05-08T05:01:47.860Z,9.09
2023-05-08T05:02:49.817Z,9.12
2023-05-08T05:03:51.770Z,9.15
2023-05-08T05:04:53.794Z,9.07
2023-05-08T05:05:59.415Z,9.22
2023-05-08T05:07:02.612Z,9.22
2023-05-08T05:08:04.797Z,9.21
2023-05-08T05:09:06.639Z,9.29
2023-05-08T05:10:09.871Z,9.30
2023-05-08T05:11:11.719Z,9.22
2023-05-08T05:12:13.655Z,9.22
2023-05-08T05:13:15.663Z,9.22
2023-05-08T05:14:17.562Z,9.32
2023-05-08T05:15:19.621Z,9.32
2023-05-08T05:16:21.629Z,9.41
2023-05-08T05:17:23.571Z,9.36
2023-05-08T05:18:25.426Z,9.37
2023-05-08T05:19:27.296Z,9.40
2023-05-08T05:20:29.380Z,9.46
2023-05-08T05:21:31.233Z,9.61
2023-05-08T05:22:33.096Z,9.68
2023-05-08T05:23:35.079Z,9.83
2023-05-08T05:24:37.045Z,9.96
2023-05-08T05:25:38.903Z,9.89
2023-05-08T05:26:41.090Z,9.40
2023-05-08T05:27:42.953Z,9.70
2023-05-08T05:28:44.838Z,9.95
2023-05-08T05:29:46.828Z,10.12
2023-05-08T05:30:49.016Z,10.20
2023-05-08T05:31:50.919Z,9.94
2023-05-08T05:32:53.090Z,10.26
2023-05-08T05:33:55.780Z,10.26
2023-05-08T05:34:57.770Z,10.26
2023-05-08T05:35:59.875Z,10.38
2023-05-08T05:37:01.877Z,10.42
2023-05-08T05:38:04.092Z,10.47
2023-05-08T05:39:06.450Z,10.56
2023-05-08T05:40:10.028Z,10.36
2023-05-08T05:41:12.062Z,10.64
2023-05-08T05:42:14.498Z,10.73
2023-05-08T05:43:16.371Z,10.74
2023-05-08T05:44:18.322Z,10.80
2023-05-08T05:45:20.379Z,10.78
2023-05-08T05:46:22.349Z,10.84
2023-05-08T05:47:24.317Z,10.85
2023-05-08T05:48:26.311Z,10.83
2023-05-08T05:49:28.254Z,10.90
2023-05-08T05:50:30.331Z,11.06
2023-05-08T05:51:32.196Z,11.04
2023-05-08T05:52:34.044Z,11.13
2023-05-08T05:53:35.934Z,11.12
2023-05-08T05:54:38.056Z,11.18
2023-05-08T05:55:39.979Z,11.33
2023-05-08T05:56:41.948Z,11.32
2023-05-08T05:57:43.848Z,11.22
2023-05-08T05:58:45.709Z,11.22
2023-05-08T05:59:47.968Z,11.51
2023-05-08T06:00:50.043Z,11.57
2023-05-08T06:01:53.209Z,11.66
2023-05-08T06:02:55.486Z,11.82
2023-05-08T06:03:57.606Z,11.57
2023-05-08T06:04:59.898Z,11.91
2023-05-08T06:06:01.863Z,12.02
2023-05-08T06:07:03.752Z,12.19
2023-05-08T06:08:07.585Z,12.10
2023-05-08T06:09:09.820Z,12.03
2023-05-08T06:10:12.728Z,12.31
2023-05-08T06:11:14.748Z,12.21
2023-05-08T06:12:16.613Z,12.23
2023-05-08T06:13:18.670Z,12.36
2023-05-08T06:14:20.689Z,12.60
2023-05-08T06:15:22.865Z,12.57
2023-05-08T06:16:24.978Z,11.82
2023-05-08T06:17:27.038Z,12.24
2023-05-08T06:18:29.529Z,12.33
2023-05-08T06:19:31.381Z,12.48
2023-05-08T06:20:33.348Z,12.56
2023-05-08T06:21:35.233Z,12.60
2023-05-08T06:22:37.496Z,12.52
2023-05-08T06:23:39.733Z,12.85
2023-05-08T06:24:41.657Z,12.68
2023-05-08T06:25:43.520Z,12.83
2023-05-08T06:26:45.608Z,12.92
2023-05-08T06:27:48.463Z,13.02
2023-05-08T06:28:51.128Z,13.21
2023-05-08T06:29:53.088Z,13.04
2023-05-08T06:30:55.269Z,13.09
2023-05-08T06:31:57.333Z,12.90
2023-05-08T06:32:59.682Z,13.08
2023-05-08T06:34:01.640Z,13.34
2023-05-08T06:35:05.314Z,13.27
2023-05-08T06:36:08.435Z,13.23
2023-05-08T06:37:10.702Z,13.50
2023-05-08T06:38:13.136Z,13.41
2023-05-08T06:39:14.970Z,13.25
2023-05-08T06:40:17.512Z,13.21
2023-05-08T06:41:19.467Z,13.07
2023-05-08T06:42:21.331Z,13.27
2023-05-08T06:43:23.288Z,12.90
2023-05-08T06:44:25.293Z,13.12
2023-05-08T06:45:27.514Z,13.30
2023-05-08T06:46:29.528Z,13.03
2023-05-08T06:47:31.738Z,13.42
2023-05-08T06:48:33.695Z,13.58
2023-05-08T06:49:36.373Z,13.84
2023-05-08T06:50:39.275Z,13.97
2023-05-08T06:51:41.175Z,13.88
2023-05-08T06:52:43.026Z,13.97
2023-05-08T06:53:44.918Z,14.11
2023-05-08T06:54:46.875Z,14.12
2023-05-08T06:55:49.927Z,14.07
2023-05-08T06:56:53.006Z,14.06
2023-05-08T06:57:55.155Z,14.04
2023-05-08T06:59:07.923Z,13.96
2023-05-08T07:00:00.803Z,14.13
2023-05-08T07:01:02.731Z,13.74
2023-05-08T07:02:04.735Z,13.98
2023-05-08T07:03:06.802Z,14.15
2023-05-08T07:04:08.776Z,14.08
2023-05-08T07:05:10.966Z,13.89
2023-05-08T07:06:13.335Z,13.97
2023-05-08T07:07:15.201Z,13.65
2023-05-08T07:08:17.256Z,13.52
2023-05-08T07:09:19.106Z,13.51
2023-05-08T07:10:22.105Z,13.48
2023-05-08T07:11:24.188Z,13.77
2023-05-08T07:12:26.195Z,13.71
2023-05-08T07:13:28.254Z,13.70
2023-05-08T07:14:30.373Z,13.98
2023-05-08T07:15:32.273Z,13.72
2023-05-08T07:16:34.999Z,13.86
2023-05-08T07:17:37.158Z,14.10
2023-05-08T07:18:39.927Z,14.44
2023-05-08T07:19:41.787Z,14.41
2023-05-08T07:20:43.935Z,14.57
2023-05-08T07:21:45.803Z,14.32
2023-05-08T07:22:47.786Z,14.31
2023-05-08T07:23:49.649Z,13.89
2023-05-08T07:24:51.521Z,14.13
2023-05-08T07:25:53.389Z,14.08
2023-05-08T07:26:55.676Z,14.28
2023-05-08T07:27:59.203Z,14.24
2023-05-08T07:29:01.371Z,14.14
2023-05-08T07:30:04.869Z,14.32
2023-05-08T07:31:06.803Z,14.45
2023-05-08T07:32:08.782Z,14.32
2023-05-08T07:33:12.218Z,14.41
2023-05-08T07:34:14.589Z,14.61
2023-05-08T07:35:16.731Z,14.51
2023-05-08T07:36:19.372Z,14.63
2023-05-08T07:37:22.148Z,14.65
2023-05-08T07:38:24.746Z,14.86
2023-05-08T07:39:26.586Z,14.78
2023-05-08T07:40:28.628Z,14.67
2023-05-08T07:41:30.685Z,14.45
2023-05-08T07:42:38.914Z,14.96
2023-05-08T07:43:40.864Z,14.68
2023-05-08T07:44:53.656Z,14.80
2023-05-08T07:45:47.349Z,15.13
2023-05-08T07:46:49.443Z,15.19
2023-05-08T07:49:03.694Z,15.00
2023-05-08T07:50:06.776Z,15.29
2023-05-08T07:51:09.247Z,15.06
2023-05-08T07:52:11.112Z,15.26
2023-05-08T07:53:12.992Z,15.09
2023-05-08T07:54:15.075Z,15.23
2023-05-08T07:55:19.006Z,14.58
2023-05-08T07:56:21.680Z,15.11
2023-05-08T07:57:24.778Z,14.79
2023-05-08T07:58:26.678Z,14.78
2023-05-08T07:59:28.781Z,14.78
2023-05-08T08:00:30.740Z,14.66
2023-05-08T08:01:32.669Z,14.54
2023-05-08T08:02:34.585Z,14.65
2023-05-08T08:03:37.832Z,14.73
2023-05-08T08:04:39.990Z,14.98
2023-05-08T08:05:42.072Z,15.25
2023-05-08T08:06:44.036Z,15.27
2023-05-08T08:07:46.110Z,15.08
2023-05-08T08:08:47.958Z,14.74
2023-05-08T08:09:49.882Z,14.51
2023-05-08T08:10:52.047Z,14.46
2023-05-08T08:11:54.000Z,14.38
2023-05-08T08:12:55.860Z,14.20
2023-05-08T08:13:57.765Z,14.04
2023-05-08T08:14:59.613Z,13.93
2023-05-08T08:16:01.609Z,13.85
2023-05-08T08:17:03.545Z,13.72
2023-05-08T08:18:05.726Z,13.93
2023-05-08T08:19:08.064Z,13.86
2023-05-08T08:20:11.344Z,13.91
2023-05-08T08:21:13.615Z,13.77
2023-05-08T08:22:15.560Z,13.44
2023-05-08T08:23:17.418Z,13.55
2023-05-08T08:24:19.280Z,13.74
2023-05-08T08:25:21.138Z,13.77
2023-05-08T08:26:23.164Z,13.99
2023-05-08T08:27:25.082Z,13.99
2023-05-08T08:28:27.056Z,14.21
2023-05-08T08:29:29.414Z,14.50
2023-05-08T08:30:31.449Z,14.61
2023-05-08T08:31:33.373Z,14.70
2023-05-08T08:32:35.703Z,14.89
2023-05-08T08:33:37.667Z,15.01
2023-05-08T08:34:39.633Z,14.96
2023-05-08T08:35:41.486Z,14.57
2023-05-08T08:36:43.851Z,14.37
2023-05-08T08:37:45.856Z,14.08
2023-05-08T08:38:47.685Z,13.96
2023-05-08T08:39:49.556Z,14.31
2023-05-08T08:40:51.533Z,14.08
2023-05-08T08:41:53.493Z,14.02
2023-05-08T08:42:55.355Z,13.96
2023-05-08T08:43:57.707Z,13.79
2023-05-08T08:45:00.601Z,14.01
2023-05-08T08:46:06.463Z,13.58
2023-05-08T08:47:10.549Z,13.46
2023-05-08T08:48:13.931Z,13.20
2023-05-08T08:49:19.519Z,13.32
2023-05-08T08:50:22.727Z,13.78
2023-05-08T08:51:34.409Z,14.28
2023-05-08T08:52:57.749Z,14.41
2023-05-08T08:54:11.722Z,14.42
2023-05-08T08:55:16.309Z,14.19
2023-05-08T08:56:22.135Z,13.93
2023-05-08T08:57:28.536Z,14.02
2023-05-08T08:58:39.042Z,13.78
2023-05-08T08:59:43.378Z,13.70
2023-05-08T09:00:47.296Z,13.79
2023-05-08T09:01:52.889Z,13.81
2023-05-08T09:02:56.215Z,13.48
2023-05-08T09:03:58.694Z,13.73
2023-05-08T09:05:03.108Z,13.98
2023-05-08T09:06:06.558Z,14.01
2023-05-08T09:07:08.897Z,14.02
2023-05-08T09:08:11.090Z,13.81
2023-05-08T09:09:13.100Z,13.74
2023-05-08T09:10:16.353Z,13.76
2023-05-08T09:11:18.365Z,13.79
2023-05-08T09:12:20.469Z,13.62
2023-05-08T09:13:22.432Z,13.75
2023-05-08T09:14:25.806Z,13.82
2023-05-08T09:15:28.153Z,13.71
2023-05-08T09:16:30.590Z,14.27
2023-05-08T09:17:33.273Z,14.58
2023-05-08T09:18:35.818Z,14.24
2023-05-08T09:19:38.074Z,14.45
2023-05-08T09:20:40.802Z,14.49
2023-05-08T09:21:43.268Z,14.58
2023-05-08T09:22:45.732Z,14.82
2023-05-08T09:24:00.508Z,14.75
2023-05-08T09:25:03.030Z,14.93
2023-05-08T09:26:05.110Z,14.76
2023-05-08T09:27:11.632Z,14.49
2023-05-08T09:28:22.038Z,14.47
2023-05-08T09:29:24.846Z,14.58
2023-05-08T09:30:26.898Z,14.44
2023-05-08T09:31:37.309Z,14.45
2023-05-08T09:32:41.865Z,14.36
2023-05-08T09:33:44.295Z,14.43
2023-05-08T09:34:50.153Z,14.41
2023-05-08T09:35:52.744Z,14.49
2023-05-08T09:38:06.735Z,14.49
2023-05-08T09:39:11.701Z,14.49
2023-05-08T09:40:21.950Z,14.40
2023-05-08T09:41:24.134Z,14.57
2023-05-08T09:42:29.876Z,14.57
2023-05-08T09:43:31.809Z,14.72
2023-05-08T09:44:50.229Z,14.92
2023-05-08T09:45:52.266Z,14.64
2023-05-08T09:47:12.857Z,14.53
2023-05-08T09:48:14.912Z,14.59
2023-05-08T09:49:17.784Z,14.28
2023-05-08T09:50:19.977Z,14.44
2023-05-08T09:51:23.851Z,14.47
2023-05-08T09:52:30.092Z,14.43
2023-05-08T09:53:32.340Z,14.53
2023-05-08T09:54:34.598Z,14.63
2023-05-08T09:55:48.488Z,14.75
2023-05-08T09:56:51.156Z,14.75
2023-05-08T09:57:59.483Z,14.74
2023-05-08T09:59:03.109Z,15.04
2023-05-08T10:00:11.950Z,15.09
2023-05-08T10:01:35.350Z,15.45
2023-05-08T10:02:40.286Z,15.35
2023-05-08T10:03:47.131Z,15.28
2023-05-08T10:04:49.188Z,15.27
2023-05-08T10:05:51.222Z,15.68
2023-05-08T10:06:58.280Z,15.39
2023-05-08T10:08:23.934Z,15.60
2023-05-08T10:09:27.351Z,15.94
2023-05-08T10:10:30.047Z,15.26
2023-05-08T10:11:32.096Z,14.93
2023-05-08T10:12:34.068Z,14.86
2023-05-08T10:13:36.045Z,14.82
2023-05-08T10:14:37.899Z,14.71
2023-05-08T10:15:43.766Z,14.75
2023-05-08T10:16:48.206Z,14.42
2023-05-08T10:17:56.314Z,14.63
2023-05-08T10:19:00.936Z,14.72
2023-05-08T10:20:06.291Z,14.65
2023-05-08T10:21:08.674Z,14.71
2023-05-08T10:22:11.851Z,14.72
2023-05-08T10:23:15.497Z,14.73
2023-05-08T10:24:19.862Z,14.80
2023-05-08T10:25:22.955Z,14.78
2023-05-08T10:26:28.683Z,14.75
2023-05-08T10:27:40.104Z,14.54
2023-05-08T10:28:55.365Z,14.86
2023-05-08T10:30:01.126Z,14.81
2023-05-08T10:31:03.755Z,14.66
2023-05-08T10:32:11.588Z,14.66
2023-05-08T10:33:15.379Z,14.85
2023-05-08T10:34:21.628Z,14.81
2023-05-08T10:35:24.827Z,14.87
2023-05-08T10:36:29.633Z,14.61
2023-05-08T10:37:34.364Z,14.78
2023-05-08T10:38:37.310Z,14.81
2023-05-08T10:39:41.867Z,14.85
2023-05-08T10:40:47.347Z,15.04
2023-05-08T10:41:50.966Z,14.56
2023-05-08T10:42:53.341Z,14.61
2023-05-08T10:44:00.594Z,14.64
2023-05-08T10:45:05.493Z,14.49
2023-05-08T10:46:11.510Z,14.41
2023-05-08T10:47:17.594Z,14.45
2023-05-08T10:48:38.298Z,14.39
2023-05-08T10:49:47.065Z,14.20
2023-05-08T10:52:33.179Z,14.34
2023-05-08T10:53:47.642Z,14.35
2023-05-08T10:55:00.415Z,14.11
2023-05-08T10:56:02.771Z,14.05
2023-05-08T10:57:12.047Z,13.93
2023-05-08T10:58:24.553Z,13.93
2023-05-08T10:59:28.147Z,13.97
2023-05-08T11:00:54.010Z,13.89
2023-05-08T11:01:59.782Z,14.01
2023-05-08T11:03:10.076Z,14.20
2023-05-08T11:04:21.683Z,14.12
2023-05-08T11:05:24.590Z,14.17
2023-05-08T11:06:47.386Z,14.28
2023-05-08T11:07:59.412Z,14.21
2023-05-08T11:09:01.472Z,13.90
2023-05-08T11:10:09.808Z,14.07
2023-05-08T11:11:32.149Z,14.19
2023-05-08T11:12:35.662Z,14.05
2023-05-08T11:13:44.093Z,14.17
2023-05-08T11:15:01.688Z,14.31
2023-05-08T11:16:04.981Z,14.40
2023-05-08T11:17:08.611Z,14.44
2023-05-08T11:18:10.789Z,14.69
2023-05-08T11:19:20.145Z,14.69
2023-05-08T11:20:23.173Z,14.68
2023-05-08T11:21:25.151Z,14.48
2023-05-08T11:22:31.364Z,14.45
2023-05-08T11:23:35.186Z,14.55
2023-05-08T11:24:39.818Z,14.61
2023-05-08T11:25:43.336Z,14.59
2023-05-08T11:26:50.394Z,14.46
2023-05-08T11:27:56.154Z,14.62
2023-05-08T11:28:58.481Z,14.45
2023-05-08T11:30:24.014Z,14.28
2023-05-08T11:33:06.019Z,14.49
2023-05-08T11:34:28.580Z,14.60
2023-05-08T11:35:48.185Z,14.81
2023-05-08T11:37:02.725Z,14.62
2023-05-08T11:38:23.204Z,14.28
2023-05-08T11:39:25.240Z,14.27
2023-05-08T11:40:49.649Z,14.41
2023-05-08T11:41:51.834Z,14.42
2023-05-08T11:42:55.523Z,14.30
2023-05-08T11:44:04.044Z,14.33
2023-05-08T11:45:11.921Z,14.42
2023-05-08T11:46:19.853Z,14.52
2023-05-08T11:47:22.862Z,14.39
2023-05-08T11:48:24.889Z,14.52
2023-05-08T11:49:29.609Z,14.62
2023-05-08T11:50:31.997Z,14.38
2023-05-08T11:51:35.819Z,14.47
2023-05-08T11:52:39.822Z,14.51
2023-05-08T11:53:43.612Z,14.38
2023-05-08T11:54:45.574Z,14.34
2023-05-08T11:55:48.545Z,14.37
2023-05-08T11:58:13.759Z,14.39
2023-05-08T11:59:16.786Z,14.35
2023-05-08T12:00:21.558Z,14.15
2023-05-08T12:01:24.923Z,14.17
2023-05-08T12:02:42.082Z,14.31
2023-05-08T12:03:46.430Z,14.29
2023-05-08T12:04:48.727Z,14.30
2023-05-08T12:05:53.130Z,14.22
2023-05-08T12:06:58.169Z,14.20
2023-05-08T12:08:00.114Z,14.25
2023-05-08T12:09:02.526Z,14.45
2023-05-08T12:10:05.936Z,14.52
2023-05-08T12:11:08.422Z,14.43
2023-05-08T12:12:10.287Z,14.30
2023-05-08T12:13:29.351Z,14.42
2023-05-08T12:14:35.256Z,14.37
2023-05-08T12:15:37.891Z,14.27
2023-05-08T12:16:40.201Z,14.24
2023-05-08T12:17:42.633Z,14.07
2023-05-08T12:18:44.837Z,13.82
2023-05-08T12:19:46.789Z,13.82
2023-05-08T12:20:57.027Z,13.68
2023-05-08T12:21:59.801Z,13.72
2023-05-08T12:23:02.816Z,13.74
2023-05-08T12:24:06.751Z,13.74
2023-05-08T12:25:10.481Z,13.89
2023-05-08T12:26:13.108Z,13.79
2023-05-08T12:27:15.182Z,13.72
2023-05-08T12:28:17.069Z,13.90
2023-05-08T12:29:19.327Z,14.14
2023-05-08T12:30:22.029Z,14.27
2023-05-08T12:31:24.610Z,14.28
2023-05-08T12:32:28.982Z,14.31
2023-05-08T12:33:32.362Z,14.06
2023-05-08T12:34:35.455Z,13.97
2023-05-08T12:35:39.412Z,14.05
2023-05-08T12:36:41.442Z,14.13
2023-05-08T12:37:46.442Z,14.05
2023-05-08T12:38:50.276Z,14.12
2023-05-08T12:39:52.987Z,14.10
2023-05-08T12:40:55.288Z,14.10
2023-05-08T12:41:58.519Z,14.32
2023-05-08T12:43:03.193Z,14.30
2023-05-08T12:44:08.951Z,14.27
2023-05-08T12:45:24.025Z,14.26
2023-05-08T12:46:26.116Z,14.31
2023-05-08T12:47:28.530Z,14.23
2023-05-08T12:48:31.184Z,14.10
2023-05-08T12:49:33.141Z,14.25
2023-05-08T12:50:37.845Z,14.31
2023-05-08T12:51:43.624Z,14.30
2023-05-08T12:52:46.746Z,14.42
2023-05-08T12:53:50.172Z,14.33
2023-05-08T12:54:52.056Z,14.44
2023-05-08T12:55:56.821Z,14.38
2023-05-08T12:56:58.821Z,14.26
2023-05-08T12:58:06.147Z,14.28
2023-05-08T12:59:09.305Z,14.44
2023-05-08T13:00:17.426Z,14.45
2023-05-08T13:01:19.966Z,14.44
2023-05-08T13:02:22.562Z,14.48
2023-05-08T13:03:27.839Z,14.43
2023-05-08T13:04:35.785Z,14.45
2023-05-08T13:05:44.756Z,14.47
2023-05-08T13:06:57.648Z,14.52
2023-05-08T13:09:15.628Z,14.27
2023-05-08T13:10:19.276Z,13.94
2023-05-08T13:11:32.315Z,13.91
2023-05-08T13:12:34.305Z,14.19
2023-05-08T13:13:36.580Z,14.41
2023-05-08T13:14:38.847Z,14.42
2023-05-08T13:15:41.572Z,14.49
2023-05-08T13:16:47.023Z,14.49
2023-05-08T13:18:07.878Z,14.61
2023-05-08T13:19:10.297Z,14.45
2023-05-08T13:20:12.894Z,14.33
2023-05-08T13:21:15.030Z,14.49
2023-05-08T13:22:16.857Z,14.29
2023-05-08T13:23:20.126Z,14.19
2023-05-08T13:24:22.081Z,14.23
2023-05-08T13:25:24.655Z,14.21
2023-05-08T13:26:26.635Z,14.08
2023-05-08T13:27:28.699Z,14.18
2023-05-08T13:28:30.575Z,14.26
2023-05-08T13:29:32.538Z,14.14
2023-05-08T13:30:35.738Z,14.09
2023-05-08T13:31:37.827Z,14.07
2023-05-08T13:32:39.820Z,14.16
2023-05-08T13:33:41.714Z,14.12
2023-05-08T13:34:49.615Z,14.06
2023-05-08T13:35:47.561Z,14.08
2023-05-08T13:36:49.513Z,14.28
2023-05-08T13:37:51.347Z,14.43
2023-05-08T13:38:53.197Z,14.35
2023-05-08T13:39:55.659Z,14.40
2023-05-08T13:40:57.636Z,14.47
2023-05-08T13:41:59.487Z,14.49
2023-05-08T13:43:01.689Z,14.38
2023-05-08T13:44:03.635Z,14.34
2023-05-08T13:45:08.566Z,14.43
2023-05-08T13:46:10.558Z,14.21
2023-05-08T13:47:12.640Z,14.21
2023-05-08T13:48:14.603Z,14.26
2023-05-08T13:49:16.574Z,14.11
2023-05-08T13:50:19.073Z,14.11
2023-05-08T13:51:21.042Z,14.11
2023-05-08T13:52:22.985Z,14.07
2023-05-08T13:53:24.870Z,14.26
2023-05-08T13:54:27.188Z,14.24
2023-05-08T13:55:29.039Z,14.16
2023-05-08T13:56:31.202Z,14.18
2023-05-08T13:57:33.397Z,14.12
2023-05-08T13:58:35.447Z,14.27
2023-05-08T13:59:37.488Z,14.10
2023-05-08T14:00:39.442Z,14.20
2023-05-08T14:01:41.426Z,14.22
2023-05-08T14:02:43.404Z,14.37
2023-05-08T14:03:46.731Z,14.38
2023-05-08T14:04:48.714Z,14.46
2023-05-08T14:05:50.781Z,14.46
2023-05-08T14:06:52.750Z,14.52
2023-05-08T14:07:54.603Z,14.58
2023-05-08T14:08:57.276Z,14.53
2023-05-08T14:09:59.680Z,14.53
2023-05-08T14:11:01.615Z,14.54
2023-05-08T14:12:03.491Z,14.58
2023-05-08T14:13:05.438Z,14.54
2023-05-08T14:14:07.982Z,14.23
2023-05-08T14:15:10.266Z,14.35
2023-05-08T14:16:12.565Z,14.63
2023-05-08T14:17:14.532Z,14.56
2023-05-08T14:18:16.689Z,14.42
2023-05-08T14:19:18.568Z,14.59